Time;durP1;ratioP1;P1;durP2;ratioP2;P2;SDS_P1;SDS_P2;PMS_P1;PMS_P2;Temp;Humidity;BMP_temperature;BMP_pressure;BME280_temperature;BME280_humidity;BME280_pressure;Samples;Min_cycle;Max_cycle;Signal;HPM_P1;HPM_P2
2023/03/11 00:01:00;;;;;;;7.97;1.40;;;0.30;99.90;;;;;;5046663;28;20463;-68
2023/03/11 00:03:27;;;;;;;4.45;1.17;;;0.30;99.90;;;;;;5048292;28;20044;-68
2023/03/11 00:05:54;;;;;;;5.35;1.33;;;0.40;99.90;;;;;;5029154;28;20351;-68
2023/03/11 00:08:22;;;;;;;4.70;1.10;;;0.40;99.90;;;;;;5048831;28;20044;-68
2023/03/11 00:10:52;;;;;;;7.57;1.40;;;0.40;99.90;;;;;;5051413;28;20094;-68
2023/03/11 00:13:18;;;;;;;3.65;1.15;;;0.50;99.90;;;;;;5050884;28;20047;-68
2023/03/11 00:15:47;;;;;;;2.58;0.90;;;0.50;99.90;;;;;;5051239;28;20487;-68
2023/03/11 00:18:13;;;;;;;5.53;1.33;;;0.50;99.90;;;;;;5048355;28;20056;-68
2023/03/11 00:20:41;;;;;;;4.72;0.95;;;0.50;99.90;;;;;;5052883;28;20029;-68
2023/03/11 00:23:08;;;;;;;7.47;1.35;;;0.50;99.90;;;;;;5049775;28;20033;-68
2023/03/11 00:25:36;;;;;;;5.55;1.13;;;0.50;99.90;;;;;;5049500;28;20107;-68
2023/03/11 00:28:02;;;;;;;10.05;1.65;;;0.50;99.90;;;;;;5045765;28;20125;-68
2023/03/11 00:30:28;;;;;;;5.70;1.55;;;0.50;99.90;;;;;;5050651;28;20029;-68
2023/03/11 00:32:56;;;;;;;6.22;1.42;;;0.50;99.90;;;;;;5050981;28;20453;-68
2023/03/11 00:35:27;;;;;;;8.23;1.55;;;0.50;99.90;;;;;;5048663;28;20045;-68
2023/03/11 00:37:58;;;;;;;6.43;1.33;;;0.50;99.90;;;;;;5047993;28;20076;-68
2023/03/11 00:40:27;;;;;;;7.55;1.30;;;0.50;99.90;;;;;;5084984;28;20040;-68
2023/03/11 00:42:52;;;;;;;7.57;1.50;;;0.50;99.90;;;;;;5049357;28;20032;-68
2023/03/11 00:45:19;;;;;;;5.80;1.20;;;0.50;99.90;;;;;;5066857;28;20044;-68
2023/03/11 00:47:44;;;;;;;7.07;1.75;;;0.50;99.90;;;;;;5050418;28;20084;-68
2023/03/11 00:50:18;;;;;;;6.07;1.42;;;0.50;99.90;;;;;;5045798;28;20061;-68
2023/03/11 00:52:45;;;;;;;7.25;1.13;;;0.50;99.90;;;;;;5050272;28;20045;-68
2023/03/11 00:55:14;;;;;;;7.57;1.30;;;0.50;99.90;;;;;;5048412;28;20041;-68
2023/03/11 00:57:40;;;;;;;10.15;1.85;;;0.50;99.90;;;;;;5050173;28;20041;-68
2023/03/11 01:00:10;;;;;;;7.25;1.08;;;0.50;99.90;;;;;;5047299;28;20041;-68
2023/03/11 01:02:37;;;;;;;7.18;1.63;;;0.40;99.90;;;;;;5050620;28;20476;-68
2023/03/11 01:05:04;;;;;;;6.85;1.33;;;0.40;99.90;;;;;;5048779;28;20080;-68
2023/03/11 01:07:30;;;;;;;9.65;1.50;;;0.30;99.90;;;;;;5049691;28;20103;-68
2023/03/11 01:09:56;;;;;;;8.32;1.30;;;0.30;99.90;;;;;;5048932;28;20045;-68
2023/03/11 01:12:21;;;;;;;5.18;1.38;;;0.30;99.90;;;;;;5048626;28;20453;-68
2023/03/11 01:14:47;;;;;;;6.18;1.38;;;0.30;99.90;;;;;;5049239;28;20147;-68
2023/03/11 01:17:13;;;;;;;4.43;1.10;;;0.30;99.90;;;;;;5050470;28;20060;-68
2023/03/11 01:19:38;;;;;;;5.80;1.60;;;0.30;99.90;;;;;;5049025;28;20041;-68
2023/03/11 01:22:04;;;;;;;3.83;0.90;;;0.30;99.90;;;;;;5031500;28;20049;-68
2023/03/11 01:24:30;;;;;;;7.15;2.38;;;0.20;99.90;;;;;;5050378;28;20053;-68
2023/03/11 01:26:55;;;;;;;6.35;1.10;;;0.20;99.90;;;;;;5049139;28;20040;-68
2023/03/11 01:29:21;;;;;;;6.40;1.50;;;0.20;99.90;;;;;;5050470;28;20399;-68
2023/03/11 01:31:46;;;;;;;5.25;1.00;;;0.20;99.90;;;;;;5047162;28;20040;-68
2023/03/11 01:34:12;;;;;;;8.77;1.27;;;0.20;99.90;;;;;;5049939;28;20036;-68
2023/03/11 01:36:38;;;;;;;4.63;1.10;;;0.10;99.90;;;;;;5047674;28;20033;-68
2023/03/11 01:39:03;;;;;;;4.03;1.00;;;0.10;99.90;;;;;;5065969;28;20048;-68
2023/03/11 01:41:29;;;;;;;8.68;1.02;;;0.20;99.90;;;;;;5048348;28;20041;-68
2023/03/11 01:43:55;;;;;;;4.63;0.90;;;0.10;99.90;;;;;;5077114;28;20462;-68
2023/03/11 01:46:24;;;;;;;7.07;1.30;;;0.20;99.90;;;;;;5049179;28;20470;-68
2023/03/11 01:48:53;;;;;;;7.80;1.17;;;0.20;99.90;;;;;;5048736;28;20689;-68
2023/03/11 01:51:32;;;;;;;4.65;1.20;;;0.10;99.90;;;;;;5046357;28;20044;-68
2023/03/11 01:54:01;;;;;;;5.35;1.13;;;0.10;99.90;;;;;;5047211;28;20064;-68
2023/03/11 01:56:27;;;;;;;5.47;1.20;;;-0.10;99.90;;;;;;5050175;28;20041;-68
2023/03/11 01:58:54;;;;;;;4.50;1.35;;;-0.10;99.90;;;;;;5048981;28;20056;-68
2023/03/11 02:01:21;;;;;;;6.20;1.23;;;-0.10;99.90;;;;;;5049276;28;20043;-68
2023/03/11 02:03:48;;;;;;;6.70;1.73;;;-0.20;99.90;;;;;;5047710;28;20040;-68
2023/03/11 02:06:18;;;;;;;9.02;1.17;;;-0.30;99.90;;;;;;5049603;28;20057;-68
2023/03/11 02:08:45;;;;;;;7.47;1.27;;;-0.40;99.90;;;;;;5044217;28;20069;-67
2023/03/11 02:11:37;;;;;;;5.25;1.10;;;-0.40;99.90;;;;;;5048231;28;20048;-67
2023/03/11 02:14:06;;;;;;;6.93;1.30;;;-0.50;99.90;;;;;;5046650;28;20040;-68
2023/03/11 02:16:32;;;;;;;10.80;1.70;;;-0.50;99.90;;;;;;5049803;28;20049;-68
2023/03/11 02:19:03;;;;;;;6.22;1.35;;;-0.50;99.90;;;;;;5047589;28;20071;-68
2023/03/11 02:21:31;;;;;;;5.88;1.40;;;-0.50;99.90;;;;;;5049882;28;20132;-67
2023/03/11 02:24:20;;;;;;;6.22;1.08;;;-0.60;99.90;;;;;;5044965;28;20083;-68
2023/03/11 02:26:56;;;;;;;3.38;0.90;;;-0.60;99.90;;;;;;5082811;28;20059;-68
2023/03/11 02:29:23;;;;;;;3.67;1.08;;;-0.60;99.90;;;;;;5046686;28;20067;-68
2023/03/11 02:31:50;;;;;;;4.97;1.40;;;-0.50;99.90;;;;;;5047599;28;20108;-68
2023/03/11 02:34:25;;;;;;;3.92;1.10;;;-0.50;99.90;;;;;;5047664;28;20126;-68
2023/03/11 02:36:51;;;;;;;5.57;1.30;;;-0.50;99.90;;;;;;5045547;28;20087;-68
2023/03/11 02:39:31;;;;;;;5.88;1.60;;;-0.50;99.90;;;;;;5049134;28;20032;-68
2023/03/11 02:41:58;;;;;;;7.00;1.15;;;-0.50;99.90;;;;;;5049875;28;20071;-68
2023/03/11 02:44:24;;;;;;;5.63;1.30;;;-0.50;99.90;;;;;;5049023;28;20044;-68
2023/03/11 02:46:51;;;;;;;6.28;1.92;;;-0.50;99.90;;;;;;5042364;28;20170;-67
2023/03/11 02:49:17;;;;;;;3.60;1.27;;;-0.40;99.90;;;;;;5049228;28;20388;-68
2023/03/11 02:51:43;;;;;;;3.65;1.20;;;-0.40;99.90;;;;;;5048326;28;20045;-68
2023/03/11 02:54:08;;;;;;;3.10;1.02;;;-0.50;99.90;;;;;;5032199;28;20492;-68
2023/03/11 02:56:34;;;;;;;3.53;1.30;;;-0.40;99.90;;;;;;5047174;28;20036;-68
2023/03/11 02:58:59;;;;;;;2.88;0.98;;;-0.50;99.90;;;;;;5049058;28;20049;-68
2023/03/11 03:01:25;;;;;;;2.25;1.02;;;-0.50;99.90;;;;;;5046248;28;20057;-68
2023/03/11 03:03:51;;;;;;;3.03;1.10;;;-0.50;99.90;;;;;;5049759;28;20044;-68
2023/03/11 03:06:17;;;;;;;5.30;1.50;;;-0.50;99.90;;;;;;5046168;28;20511;-68
2023/03/11 03:08:42;;;;;;;4.97;1.10;;;-0.60;99.90;;;;;;5049110;28;20403;-67
2023/03/11 03:11:08;;;;;;;6.30;1.23;;;-0.60;99.90;;;;;;5049248;28;20033;-68
2023/03/11 03:13:35;;;;;;;7.85;0.80;;;-0.70;99.90;;;;;;5048681;28;20052;-68
2023/03/11 03:16:01;;;;;;;4.35;1.05;;;-0.70;99.90;;;;;;5048981;28;20041;-68
2023/03/11 03:18:26;;;;;;;1.85;0.88;;;-0.70;99.90;;;;;;5037249;28;20033;-67
2023/03/11 03:20:53;;;;;;;3.88;0.80;;;-0.70;99.90;;;;;;5048994;28;20053;-68
2023/03/11 03:23:19;;;;;;;3.55;1.05;;;-0.80;99.90;;;;;;5048208;28;20045;-68
2023/03/11 03:25:45;;;;;;;3.78;1.00;;;-0.80;99.90;;;;;;5047972;28;20414;-67
2023/03/11 03:28:12;;;;;;;2.67;1.20;;;-0.80;99.90;;;;;;5044776;28;20042;-68
2023/03/11 03:30:41;;;;;;;2.30;1.13;;;-0.80;99.90;;;;;;5048650;28;20333;-68
2023/03/11 03:33:07;;;;;;;5.43;1.02;;;-0.90;99.90;;;;;;5047753;28;20119;-68
2023/03/11 03:35:33;;;;;;;3.80;0.90;;;-0.90;99.90;;;;;;5048930;28;20036;-68
2023/03/11 03:38:00;;;;;;;4.22;1.15;;;-0.90;99.90;;;;;;5047742;28;20041;-67
2023/03/11 03:40:29;;;;;;;5.78;1.00;;;-1.00;99.90;;;;;;5047475;28;20496;-68
2023/03/11 03:42:55;;;;;;;3.88;1.00;;;-1.00;99.90;;;;;;5050943;28;20049;-68
2023/03/11 03:45:20;;;;;;;6.80;0.98;;;-0.90;99.90;;;;;;5052701;28;20120;-68
2023/03/11 03:47:46;;;;;;;5.72;1.25;;;-0.90;99.90;;;;;;5051992;28;20048;-68
2023/03/11 03:50:12;;;;;;;4.90;1.30;;;-0.90;99.90;;;;;;5034249;28;20037;-68
2023/03/11 03:52:37;;;;;;;6.05;1.00;;;-0.90;99.90;;;;;;5052452;28;20455;-68
2023/03/11 03:55:05;;;;;;;4.72;0.82;;;-0.90;99.90;;;;;;5051606;28;20041;-67
2023/03/11 03:57:30;;;;;;;3.25;1.33;;;-0.90;99.90;;;;;;5051743;28;20068;-68
2023/03/11 03:59:56;;;;;;;3.10;0.80;;;-0.90;99.90;;;;;;5050362;28;20068;-68
2023/03/11 04:02:22;;;;;;;2.53;1.17;;;-1.00;99.90;;;;;;5048455;28;20087;-68
2023/03/11 04:04:48;;;;;;;3.13;0.85;;;-1.00;99.90;;;;;;5052140;28;20041;-68
2023/03/11 04:07:14;;;;;;;5.60;0.95;;;-1.00;99.90;;;;;;5051364;28;20385;-68
2023/03/11 04:09:41;;;;;;;4.40;1.10;;;-1.00;99.90;;;;;;5051500;28;20051;-68
2023/03/11 04:12:10;;;;;;;8.27;1.38;;;-1.00;99.90;;;;;;5083194;28;20045;-68
2023/03/11 04:14:36;;;;;;;3.58;1.20;;;-0.90;99.90;;;;;;5052132;28;20075;-68
2023/03/11 04:17:01;;;;;;;2.58;1.20;;;-1.00;99.90;;;;;;5048931;28;20452;-68
2023/03/11 04:19:27;;;;;;;3.10;1.35;;;-1.00;99.90;;;;;;5065545;28;20416;-67
2023/03/11 04:21:53;;;;;;;3.13;0.80;;;-1.00;99.90;;;;;;5050082;28;20037;-68
2023/03/11 04:24:18;;;;;;;1.73;0.90;;;-1.00;99.90;;;;;;5051668;28;20419;-68
2023/03/11 04:26:44;;;;;;;3.20;0.88;;;-1.00;99.90;;;;;;5051126;28;20049;-68
2023/03/11 04:29:10;;;;;;;1.25;0.80;;;-1.00;99.90;;;;;;5051902;28;20392;-68
2023/03/11 04:31:36;;;;;;;3.30;0.98;;;-1.00;99.90;;;;;;5048930;28;20076;-67
2023/03/11 04:34:01;;;;;;;6.07;1.30;;;-1.00;99.90;;;;;;5051868;28;20052;-68
2023/03/11 04:36:27;;;;;;;4.05;0.82;;;-1.10;99.90;;;;;;5049875;28;20037;-68
2023/03/11 04:38:54;;;;;;;3.47;1.30;;;-1.10;99.90;;;;;;5049021;28;20127;-68
2023/03/11 04:41:20;;;;;;;6.25;1.30;;;-1.10;99.90;;;;;;5034388;28;20055;-68
2023/03/11 04:43:46;;;;;;;2.95;0.95;;;-1.10;99.90;;;;;;5048813;28;20461;-68
2023/03/11 04:46:11;;;;;;;3.95;1.00;;;-1.20;99.90;;;;;;5034642;28;20029;-68
2023/03/11 04:48:37;;;;;;;4.82;1.13;;;-1.20;99.90;;;;;;5049458;28;20041;-68
2023/03/11 04:51:03;;;;;;;3.35;1.00;;;-1.20;99.90;;;;;;5033024;28;20136;-68
2023/03/11 04:53:29;;;;;;;5.80;1.00;;;-1.30;99.90;;;;;;5048717;28;20040;-68
2023/03/11 04:55:54;;;;;;;3.05;0.95;;;-1.20;99.90;;;;;;5050897;28;20127;-68
2023/03/11 04:58:20;;;;;;;5.25;0.98;;;-1.30;99.90;;;;;;5049944;28;20037;-68
2023/03/11 05:00:46;;;;;;;2.75;0.90;;;-1.30;99.90;;;;;;5050825;28;20450;-67
2023/03/11 05:03:12;;;;;;;1.85;0.80;;;-1.30;99.90;;;;;;5047391;28;20059;-68
2023/03/11 05:05:37;;;;;;;3.67;1.40;;;-1.30;99.90;;;;;;5048371;28;20337;-68
2023/03/11 05:08:04;;;;;;;2.72;1.00;;;-1.40;99.90;;;;;;5033117;28;20059;-68
2023/03/11 05:10:29;;;;;;;4.50;1.05;;;-1.40;99.90;;;;;;5048751;28;20045;-68
2023/03/11 05:12:55;;;;;;;1.27;0.82;;;-1.40;99.90;;;;;;5050543;28;20040;-68
2023/03/11 05:15:21;;;;;;;6.82;1.20;;;-1.50;99.90;;;;;;5047725;28;20045;-68
2023/03/11 05:17:46;;;;;;;4.55;0.85;;;-1.50;99.90;;;;;;5050825;28;20076;-68
2023/03/11 05:20:13;;;;;;;3.45;1.00;;;-1.50;99.90;;;;;;5050107;28;20044;-67
2023/03/11 05:22:38;;;;;;;2.10;1.02;;;-1.60;99.90;;;;;;5050710;28;20083;-67
2023/03/11 05:25:05;;;;;;;3.42;1.00;;;-1.60;99.90;;;;;;5046229;28;20045;-68
2023/03/11 05:27:30;;;;;;;3.53;1.10;;;-1.70;99.90;;;;;;5050701;28;20357;-68
2023/03/11 05:29:56;;;;;;;2.97;0.90;;;-1.70;99.90;;;;;;5049855;28;20055;-67
2023/03/11 05:32:22;;;;;;;4.25;1.23;;;-1.70;99.90;;;;;;5048815;28;20082;-68
2023/03/11 05:34:48;;;;;;;2.85;0.85;;;-1.70;99.90;;;;;;5050288;28;20043;-69
2023/03/11 05:37:14;;;;;;;2.83;1.13;;;-1.70;99.90;;;;;;5049453;28;20126;-68
2023/03/11 05:39:40;;;;;;;4.10;1.00;;;-1.80;99.90;;;;;;5046530;28;20041;-68
2023/03/11 05:42:07;;;;;;;1.92;1.00;;;-1.90;99.90;;;;;;5049074;28;20372;-68
2023/03/11 05:44:33;;;;;;;2.28;1.02;;;-1.80;99.90;;;;;;5050462;28;20495;-68
2023/03/11 05:46:59;;;;;;;2.20;0.93;;;-1.80;99.90;;;;;;5049769;28;20471;-68
2023/03/11 05:49:24;;;;;;;6.05;1.10;;;-1.80;99.90;;;;;;5050111;28;20029;-69
2023/03/11 05:51:50;;;;;;;3.72;1.48;;;-1.90;99.90;;;;;;5047898;28;20451;-68
2023/03/11 05:54:16;;;;;;;1.85;0.95;;;-1.90;99.90;;;;;;5048971;28;20120;-68
2023/03/11 05:56:46;;;;;;;2.40;1.13;;;-1.90;99.90;;;;;;5049998;28;20044;-68
2023/03/11 05:59:13;;;;;;;2.00;0.98;;;-1.90;99.90;;;;;;5048769;28;20142;-68
2023/03/11 06:01:40;;;;;;;1.70;0.93;;;-1.90;99.90;;;;;;5049761;28;20171;-69
2023/03/11 06:04:06;;;;;;;3.63;0.93;;;-1.90;99.90;;;;;;5045904;28;20045;-69
2023/03/11 06:06:32;;;;;;;2.58;0.90;;;-1.90;99.90;;;;;;5049131;28;20045;-68
2023/03/11 06:08:57;;;;;;;3.95;1.00;;;-1.90;99.90;;;;;;5048269;28;20059;-68
2023/03/11 06:11:24;;;;;;;5.50;1.08;;;-1.90;99.90;;;;;;5045906;28;20045;-68
2023/03/11 06:13:54;;;;;;;1.25;0.70;;;-1.90;99.90;;;;;;5046397;28;20048;-69
2023/03/11 06:16:21;;;;;;;5.68;1.00;;;-1.90;99.90;;;;;;5031914;28;20507;-69
2023/03/11 06:18:46;;;;;;;3.28;0.95;;;-1.90;99.90;;;;;;5049504;28;20470;-68
2023/03/11 06:21:16;;;;;;;2.85;0.90;;;-1.90;99.90;;;;;;5048240;28;20115;-68
2023/03/11 06:23:42;;;;;;;1.75;1.23;;;-1.90;99.90;;;;;;5031775;28;20069;-68
2023/03/11 06:26:11;;;;;;;2.45;0.88;;;-1.90;99.90;;;;;;5047157;28;20087;-68
2023/03/11 06:28:36;;;;;;;2.75;0.90;;;-1.90;99.90;;;;;;5048938;28;20048;-69
2023/03/11 06:31:16;;;;;;;4.10;1.33;;;-1.90;99.90;;;;;;5048403;28;20041;-69
2023/03/11 06:33:43;;;;;;;3.63;1.00;;;-1.80;99.90;;;;;;5049192;28;20044;-68
2023/03/11 06:36:11;;;;;;;7.70;0.93;;;-1.80;99.90;;;;;;5046912;28;20477;-68
2023/03/11 06:38:37;;;;;;;3.20;0.95;;;-1.80;99.90;;;;;;5049288;28;20032;-69
2023/03/11 06:41:04;;;;;;;4.57;0.70;;;-1.70;99.90;;;;;;5047277;28;20110;-68
2023/03/11 06:43:30;;;;;;;1.52;1.00;;;-1.80;99.90;;;;;;5044106;28;20045;-68
2023/03/11 06:45:57;;;;;;;2.75;1.02;;;-1.70;99.90;;;;;;5049622;28;20494;-69
2023/03/11 06:48:23;;;;;;;1.92;1.33;;;-1.70;99.90;;;;;;5048417;28;20065;-68
2023/03/11 06:50:57;;;;;;;3.13;0.90;;;-1.60;99.90;;;;;;5049159;28;20377;-68
2023/03/11 06:53:23;;;;;;;1.15;0.77;;;-1.50;99.90;;;;;;5047025;28;20068;-68
2023/03/11 06:56:06;;;;;;;4.43;1.02;;;-1.50;99.90;;;;;;5041630;28;20084;-68
2023/03/11 06:58:33;;;;;;;2.55;0.80;;;-1.40;99.90;;;;;;5031070;28;20064;-69
2023/03/11 07:01:10;;;;;;;2.53;1.00;;;-1.30;99.90;;;;;;5046007;28;20040;-68
2023/03/11 07:03:36;;;;;;;2.80;0.82;;;-1.30;99.90;;;;;;5046911;28;20394;-69
2023/03/11 07:06:02;;;;;;;3.17;1.00;;;-1.30;99.90;;;;;;5048232;28;20123;-68
2023/03/11 07:08:28;;;;;;;1.52;0.80;;;-1.20;99.90;;;;;;5064425;28;20053;-68
2023/03/11 07:11:03;;;;;;;2.53;0.90;;;-1.10;99.90;;;;;;5027934;28;20068;-68
2023/03/11 07:13:29;;;;;;;4.13;0.73;;;-1.10;99.90;;;;;;5081460;28;20111;-68
2023/03/11 07:16:01;;;;;;;3.17;0.95;;;-1.10;99.90;;;;;;5030789;28;20131;-69
2023/03/11 07:18:27;;;;;;;2.03;0.80;;;-1.00;99.90;;;;;;5052300;28;20032;-69
2023/03/11 07:20:52;;;;;;;3.88;0.80;;;-0.90;99.90;;;;;;5052990;28;20120;-68
2023/03/11 07:23:18;;;;;;;3.60;0.90;;;-0.80;99.90;;;;;;5051153;28;20124;-68
2023/03/11 07:25:47;;;;;;;7.43;0.80;;;-0.70;99.90;;;;;;5052951;28;20122;-69
2023/03/11 07:28:13;;;;;;;3.08;0.85;;;-0.50;99.90;;;;;;5052285;28;20044;-68
2023/03/11 07:30:40;;;;;;;3.13;0.80;;;-0.50;99.90;;;;;;5052146;28;20040;-68
2023/03/11 07:33:05;;;;;;;8.38;1.27;;;-0.40;99.90;;;;;;5049425;28;20037;-68
2023/03/11 07:35:31;;;;;;;3.80;0.80;;;-0.20;99.90;;;;;;5052774;28;20037;-68
2023/03/11 07:37:57;;;;;;;5.88;1.48;;;-0.20;99.90;;;;;;5052032;28;20080;-69
2023/03/11 07:40:22;;;;;;;4.05;1.10;;;-0.10;99.90;;;;;;5052066;28;20055;-69
2023/03/11 07:42:48;;;;;;;5.20;0.80;;;0.10;99.90;;;;;;5050382;28;20099;-68
2023/03/11 07:45:14;;;;;;;1.70;0.80;;;0.20;99.90;;;;;;5052675;28;20487;-69
2023/03/11 07:47:39;;;;;;;2.70;0.90;;;0.40;99.90;;;;;;5034003;28;20491;-69
2023/03/11 07:50:05;;;;;;;3.25;1.33;;;0.60;99.90;;;;;;5052721;28;20040;-69
2023/03/11 07:52:32;;;;;;;5.25;1.20;;;0.70;99.90;;;;;;5050696;28;20048;-69
2023/03/11 07:54:58;;;;;;;4.18;0.82;;;0.80;99.90;;;;;;5048536;28;20041;-69
2023/03/11 07:57:23;;;;;;;4.95;1.25;;;1.00;99.90;;;;;;5035545;28;20073;-69
2023/03/11 07:59:49;;;;;;;2.28;0.80;;;1.10;99.90;;;;;;5047416;28;20075;-69
2023/03/11 08:02:15;;;;;;;3.10;1.00;;;1.20;99.90;;;;;;5052287;28;20459;-69
2023/03/11 08:04:40;;;;;;;2.85;1.13;;;1.30;99.90;;;;;;5045349;28;20044;-69
2023/03/11 08:07:06;;;;;;;5.43;0.75;;;1.40;99.90;;;;;;5051911;28;20055;-69
2023/03/11 08:09:34;;;;;;;5.03;1.10;;;1.50;99.90;;;;;;5051415;28;20087;-69
2023/03/11 08:12:00;;;;;;;5.47;0.85;;;1.60;99.90;;;;;;5045938;28;20033;-69
2023/03/11 08:14:25;;;;;;;4.53;0.93;;;1.70;99.90;;;;;;5049376;28;20119;-69
2023/03/11 08:16:51;;;;;;;3.88;1.33;;;1.90;99.90;;;;;;5035171;28;20040;-69
2023/03/11 08:19:17;;;;;;;2.85;0.70;;;2.10;99.90;;;;;;5047802;28;20045;-69
2023/03/11 08:21:42;;;;;;;10.07;1.25;;;2.10;99.90;;;;;;5051590;28;20033;-68
2023/03/11 08:24:11;;;;;;;2.42;0.73;;;2.20;99.90;;;;;;5050020;28;20477;-68
2023/03/11 08:26:36;;;;;;;2.03;0.80;;;2.30;99.90;;;;;;5047361;28;20045;-68
2023/03/11 08:29:03;;;;;;;3.05;0.80;;;2.40;99.90;;;;;;5034810;28;20029;-68
2023/03/11 08:31:31;;;;;;;5.10;0.90;;;2.30;99.90;;;;;;5049734;28;20118;-68
2023/03/11 08:34:08;;;;;;;4.38;0.75;;;2.40;99.90;;;;;;5085079;28;20116;-69
2023/03/11 08:36:34;;;;;;;5.85;0.70;;;2.50;99.90;;;;;;5048894;28;20036;-68
2023/03/11 08:39:00;;;;;;;4.50;0.70;;;2.50;99.90;;;;;;5085041;28;20044;-69
2023/03/11 08:41:26;;;;;;;5.13;1.02;;;2.70;99.90;;;;;;5033860;28;20053;-69
2023/03/11 08:43:52;;;;;;;4.28;0.90;;;2.90;99.90;;;;;;5049656;28;20041;-69
2023/03/11 08:46:34;;;;;;;3.13;0.90;;;3.00;99.90;;;;;;5048281;28;20400;-69
2023/03/11 08:49:01;;;;;;;6.75;1.00;;;3.10;99.90;;;;;;5084698;28;20155;-69
2023/03/11 08:51:28;;;;;;;2.95;0.98;;;3.00;99.90;;;;;;5050516;28;20045;-69
2023/03/11 08:53:53;;;;;;;4.22;1.35;;;3.00;99.90;;;;;;5067955;28;20120;-69
2023/03/11 08:56:20;;;;;;;6.85;1.10;;;3.10;99.90;;;;;;5048693;28;20174;-69
2023/03/11 08:58:46;;;;;;;4.43;1.35;;;3.10;99.90;;;;;;5052421;28;20120;-69
2023/03/11 09:01:12;;;;;;;6.53;2.03;;;3.10;99.90;;;;;;5049947;28;20033;-69
2023/03/11 09:03:38;;;;;;;4.15;1.23;;;3.20;99.90;;;;;;5051013;28;20083;-69
2023/03/11 09:06:08;;;;;;;6.80;1.10;;;3.20;99.90;;;;;;5047871;28;20045;-69
2023/03/11 09:08:34;;;;;;;4.30;1.77;;;3.30;99.90;;;;;;5047759;28;20394;-69
2023/03/11 09:11:00;;;;;;;6.85;1.13;;;3.50;99.90;;;;;;5050698;28;20055;-70
2023/03/11 09:13:26;;;;;;;1.33;0.80;;;3.50;99.90;;;;;;5050006;28;20036;-69
2023/03/11 09:15:52;;;;;;;9.02;0.90;;;3.70;99.90;;;;;;5050602;28;20041;-69
2023/03/11 09:18:18;;;;;;;6.88;0.90;;;3.80;99.90;;;;;;5045897;28;20037;-69
2023/03/11 09:20:44;;;;;;;6.25;1.65;;;4.00;99.90;;;;;;5050668;28;20036;-69
2023/03/11 09:23:12;;;;;;;3.67;0.85;;;4.10;99.90;;;;;;5049167;28;20098;-69
2023/03/11 09:25:38;;;;;;;3.67;0.82;;;4.10;99.90;;;;;;5048411;28;20455;-69
2023/03/11 09:28:04;;;;;;;4.88;0.90;;;4.10;99.90;;;;;;5032445;28;20072;-69
2023/03/11 09:30:30;;;;;;;3.45;0.80;;;4.10;99.90;;;;;;5050389;28;20055;-69
2023/03/11 09:32:56;;;;;;;4.90;1.00;;;4.20;99.90;;;;;;5049458;28;20028;-68
2023/03/11 09:35:22;;;;;;;8.73;2.55;;;4.30;99.90;;;;;;5050106;28;20377;-69
2023/03/11 09:37:47;;;;;;;3.75;0.90;;;4.30;99.90;;;;;;5032380;28;20134;-69
2023/03/11 09:40:19;;;;;;;2.20;0.90;;;4.20;99.90;;;;;;5047364;28;20514;-68
2023/03/11 09:43:07;;;;;;;6.10;1.30;;;4.40;99.90;;;;;;5050038;28;20412;-68
2023/03/11 09:45:39;;;;;;;6.80;1.42;;;4.60;99.90;;;;;;5049230;28;20041;-69
2023/03/11 09:48:18;;;;;;;3.15;1.00;;;4.80;99.90;;;;;;5049883;28;20091;-68
2023/03/11 09:50:47;;;;;;;3.63;1.05;;;5.10;99.90;;;;;;5046736;28;20045;-68
2023/03/11 09:53:14;;;;;;;4.47;1.35;;;5.20;99.90;;;;;;5049283;28;20242;-69
2023/03/11 09:55:52;;;;;;;4.65;1.20;;;5.30;99.90;;;;;;5049854;28;20041;-69
2023/03/11 09:58:23;;;;;;;4.30;1.50;;;5.30;99.90;;;;;;5032286;28;20049;-69
2023/03/11 10:00:51;;;;;;;5.85;1.40;;;5.30;99.90;;;;;;5077520;28;20373;-69
2023/03/11 10:03:31;;;;;;;4.03;1.58;;;5.30;99.90;;;;;;5049740;28;20080;-69
2023/03/11 10:06:17;;;;;;;5.43;1.38;;;5.50;99.90;;;;;;5049179;28;20080;-69
2023/03/11 10:08:55;;;;;;;8.25;1.90;;;5.40;99.90;;;;;;5048872;28;20052;-68
2023/03/11 10:11:51;;;;;;;7.78;1.80;;;5.60;99.90;;;;;;5044124;28;20120;-69
2023/03/11 10:14:46;;;;;;;8.48;1.60;;;5.80;99.90;;;;;;5049840;28;20037;-69
2023/03/11 10:17:33;;;;;;;7.30;1.20;;;5.90;99.90;;;;;;5044287;28;20048;-68
2023/03/11 10:20:27;;;;;;;3.83;1.10;;;5.80;99.90;;;;;;5048387;28;20037;-68
2023/03/11 10:23:17;;;;;;;4.43;1.05;;;5.80;99.90;;;;;;5076263;28;20044;-69
2023/03/11 10:25:59;;;;;;;7.05;1.48;;;5.90;99.90;;;;;;5049096;28;20095;-68
2023/03/11 10:28:45;;;;;;;5.00;1.25;;;5.80;99.90;;;;;;5047335;28;20476;-68
2023/03/11 10:31:20;;;;;;;7.07;1.40;;;6.00;99.90;;;;;;5032341;28;20048;-68
2023/03/11 10:34:03;;;;;;;3.65;1.05;;;6.20;99.90;;;;;;5028250;28;20045;-68
2023/03/11 10:36:39;;;;;;;4.80;1.08;;;6.40;99.90;;;;;;5049192;28;20036;-68
2023/03/11 10:39:05;;;;;;;7.25;1.00;;;6.40;99.90;;;;;;5049791;28;20036;-69
2023/03/11 10:41:42;;;;;;;4.93;1.00;;;6.50;99.90;;;;;;5048176;28;20037;-68
2023/03/11 10:44:28;;;;;;;6.93;1.23;;;6.70;99.90;;;;;;5046513;28;20121;-68
2023/03/11 10:46:53;;;;;;;6.20;1.25;;;7.20;99.90;;;;;;5049386;28;20508;-69
2023/03/11 10:49:19;;;;;;;4.35;0.90;;;7.40;99.90;;;;;;5046952;28;20043;-68
2023/03/11 10:51:48;;;;;;;5.28;0.85;;;7.60;99.90;;;;;;5048644;28;20546;-69
2023/03/11 10:54:28;;;;;;;3.30;0.85;;;7.60;99.90;;;;;;5044270;28;20036;-68
2023/03/11 10:57:17;;;;;;;3.72;0.70;;;7.60;99.90;;;;;;5049482;28;20045;-69
2023/03/11 10:59:52;;;;;;;4.85;0.80;;;7.70;99.90;;;;;;5048108;28;20453;-68
2023/03/11 11:02:25;;;;;;;10.05;1.00;;;7.80;99.90;;;;;;5032437;28;20049;-68
2023/03/11 11:05:31;;;;;;;2.22;0.70;;;7.90;99.90;;;;;;5043716;28;20462;-68
2023/03/11 11:08:05;;;;;;;4.28;0.90;;;7.80;99.90;;;;;;5047494;28;20045;-68
2023/03/11 11:10:31;;;;;;;5.35;0.95;;;8.00;99.90;;;;;;5047003;28;20049;-68
2023/03/11 11:12:59;;;;;;;5.22;0.80;;;8.10;99.90;;;;;;5064562;28;20077;-68
2023/03/11 11:15:30;;;;;;;5.00;0.80;;;7.70;99.90;;;;;;5060832;28;20041;-69
2023/03/11 11:17:59;;;;;;;2.83;0.63;;;7.70;99.90;;;;;;5029695;28;20049;-68
2023/03/11 11:20:26;;;;;;;4.07;0.60;;;7.90;99.90;;;;;;5064697;28;20045;-69
2023/03/11 11:22:58;;;;;;;3.75;0.98;;;7.80;99.90;;;;;;5044581;28;20057;-68
2023/03/11 11:25:35;;;;;;;3.50;0.55;;;8.00;99.90;;;;;;5063169;28;20068;-69
2023/03/11 11:28:16;;;;;;;2.70;0.70;;;7.80;99.90;;;;;;5064696;28;20507;-68
2023/03/11 11:30:55;;;;;;;3.00;0.50;;;7.90;99.90;;;;;;5063439;28;20037;-69
2023/03/11 11:33:28;;;;;;;3.00;0.52;;;7.80;99.20;;;;;;5031484;28;20459;-66
2023/03/11 11:35:57;;;;;;;5.53;0.93;;;7.80;99.70;;;;;;5061218;28;20143;-67
2023/03/11 11:38:25;;;;;;;2.25;0.60;;;7.90;99.60;;;;;;5031261;28;20098;-69
2023/03/11 11:40:53;;;;;;;2.22;0.70;;;7.70;98.80;;;;;;5063330;28;20068;-68
2023/03/11 11:43:55;;;;;;;3.60;0.80;;;7.80;99.70;;;;;;5065032;28;20051;-68
2023/03/11 11:46:40;;;;;;;4.40;0.70;;;8.00;99.90;;;;;;5029812;28;20053;-68
2023/03/11 11:49:15;;;;;;;2.60;0.90;;;8.20;99.90;;;;;;5064154;28;20048;-68
2023/03/11 11:51:48;;;;;;;4.00;0.70;;;8.40;98.60;;;;;;5030596;28;20079;-69
2023/03/11 11:54:23;;;;;;;5.68;0.63;;;8.20;97.70;;;;;;5064143;28;20041;-68
2023/03/11 11:56:49;;;;;;;4.82;0.90;;;8.20;99.20;;;;;;5028911;28;20060;-68
2023/03/11 11:59:20;;;;;;;2.55;0.65;;;8.20;99.20;;;;;;5030601;28;20033;-69
2023/03/11 12:01:58;;;;;;;2.42;0.57;;;8.20;99.00;;;;;;5063430;28;20057;-69
2023/03/11 12:04:41;;;;;;;3.67;0.60;;;8.00;99.90;;;;;;5031093;28;20510;-69
2023/03/11 12:07:35;;;;;;;3.22;0.85;;;8.30;99.10;;;;;;5027916;28;20076;-69
2023/03/11 12:10:30;;;;;;;2.35;0.40;;;8.30;98.30;;;;;;5030743;28;20056;-69
2023/03/11 12:13:11;;;;;;;4.57;0.63;;;8.40;97.80;;;;;;4970902;28;20130;-68
2023/03/11 12:15:46;;;;;;;2.90;1.05;;;8.50;97.50;;;;;;4955715;28;20051;-68
2023/03/11 12:18:20;;;;;;;3.25;0.52;;;8.40;98.00;;;;;;4953801;28;20058;-69
2023/03/11 12:20:53;;;;;;;3.63;0.60;;;8.10;98.30;;;;;;4955600;28;20125;-69
2023/03/11 12:23:44;;;;;;;4.00;0.88;;;7.90;99.00;;;;;;4991361;28;20050;-69
2023/03/11 12:26:20;;;;;;;6.97;0.63;;;8.10;99.90;;;;;;4974910;28;20045;-69
2023/03/11 12:28:57;;;;;;;4.75;1.02;;;7.70;98.00;;;;;;4973220;28;20604;-68
2023/03/11 12:31:26;;;;;;;5.63;0.85;;;8.00;99.80;;;;;;4974957;28;20081;-68
2023/03/11 12:33:59;;;;;;;4.32;0.88;;;8.10;99.30;;;;;;4973916;28;20053;-68
2023/03/11 12:36:34;;;;;;;4.05;0.65;;;8.00;97.90;;;;;;4974890;28;20420;-69
2023/03/11 12:39:04;;;;;;;2.85;0.63;;;7.90;99.10;;;;;;4970685;28;20042;-68
2023/03/11 12:41:41;;;;;;;2.20;0.47;;;7.90;99.50;;;;;;4974972;28;20042;-68
2023/03/11 12:44:27;;;;;;;4.72;0.60;;;8.10;99.60;;;;;;4974202;28;20548;-68
2023/03/11 12:46:53;;;;;;;5.18;0.57;;;7.90;98.50;;;;;;4974415;28;20261;-69
2023/03/11 12:49:23;;;;;;;2.47;0.50;;;7.90;98.20;;;;;;4990718;28;20119;-69
2023/03/11 12:52:16;;;;;;;3.10;0.60;;;7.60;97.30;;;;;;5050820;28;20040;-69
2023/03/11 12:54:55;;;;;;;2.15;0.55;;;7.70;99.60;;;;;;5050030;28;20087;-69
2023/03/11 12:57:20;;;;;;;2.40;0.65;;;7.50;97.30;;;;;;5047426;28;20621;-68
2023/03/11 13:00:16;;;;;;;3.15;1.20;;;7.50;98.30;;;;;;5047633;28;20057;-69
2023/03/11 13:03:12;;;;;;;3.17;0.65;;;7.50;98.60;;;;;;5045451;28;20041;-68
2023/03/11 13:06:00;;;;;;;2.92;0.68;;;7.70;98.70;;;;;;5048831;28;20044;-69